Time;durP1;ratioP1;P1;durP2;ratioP2;P2;SDS_P1;SDS_P2;PMS_P1;PMS_P2;Temp;Humidity;BMP_temperature;BMP_pressure;BME280_temperature;BME280_humidity;BME280_pressure;Samples;Min_cycle;Max_cycle;Signal;HPM_P1;HPM_P2
2021/01/06 00:04:32;;;;;;;35.30;21.20;;;;;;;1.98;100.00;101032.88;10271737;28;20055;-74
2021/01/06 00:09:33;;;;;;;30.92;19.88;;;;;;;1.99;100.00;101032.00;10224452;28;20047;-74
2021/01/06 00:14:34;;;;;;;27.38;17.95;;;;;;;1.95;100.00;101030.25;10249174;28;20498;-74
2021/01/06 00:19:35;;;;;;;27.05;17.80;;;;;;;2.03;100.00;101041.50;10257780;29;20490;-74
2021/01/06 00:24:36;;;;;;;30.90;20.00;;;;;;;2.11;100.00;101055.34;10242614;29;20047;-74
2021/01/06 00:29:37;;;;;;;32.92;19.77;;;;;;;2.12;100.00;101040.59;10280643;28;20043;-74
2021/01/06 00:34:39;;;;;;;29.25;16.08;;;;;;;2.16;100.00;101047.53;10297412;28;20102;-74
2021/01/06 00:39:40;;;;;;;29.42;17.98;;;;;;;2.17;100.00;101042.34;10258880;29;20047;-74
2021/01/06 00:44:41;;;;;;;27.50;16.77;;;;;;;2.24;100.00;101035.38;10240111;28;20361;-74
2021/01/06 00:49:43;;;;;;;23.92;14.88;;;;;;;2.21;100.00;101032.78;10238598;29;20514;-74
2021/01/06 00:54:47;;;;;;;22.67;15.20;;;;;;;2.15;100.00;101033.69;10257993;29;20074;-74
2021/01/06 00:59:49;;;;;;;26.23;16.00;;;;;;;2.23;100.00;101039.72;10218530;29;20051;-74
2021/01/06 01:04:50;;;;;;;20.35;14.35;;;;;;;2.23;100.00;101033.66;10247424;28;20058;-74
2021/01/06 01:09:53;;;;;;;20.30;14.82;;;;;;;2.24;100.00;101035.38;10240175;29;20051;-74
2021/01/06 01:14:54;;;;;;;26.58;17.33;;;;;;;2.28;100.00;101037.09;10255524;28;20054;-74
2021/01/06 01:19:55;;;;;;;22.13;15.68;;;;;;;2.26;100.00;101026.69;10256502;28;20406;-74
2021/01/06 01:24:56;;;;;;;24.50;15.32;;;;;;;2.28;100.00;101026.69;10257225;29;20349;-74
2021/01/06 01:29:57;;;;;;;24.27;16.67;;;;;;;2.37;100.00;101037.06;10280352;28;20349;-74
2021/01/06 01:34:58;;;;;;;19.75;14.10;;;;;;;2.31;100.00;101039.69;10291619;28;20416;-75
2021/01/06 01:39:59;;;;;;;20.35;14.80;;;;;;;2.35;100.00;101035.31;10255772;29;20045;-74
2021/01/06 01:45:04;;;;;;;21.30;14.95;;;;;;;2.37;100.00;101037.06;10255853;29;20043;-74
2021/01/06 01:50:06;;;;;;;25.02;20.38;;;;;;;2.40;100.00;101034.47;10238651;29;20055;-75
2021/01/06 01:55:11;;;;;;;17.45;13.32;;;;;;;2.34;100.00;101021.50;10234821;29;20481;-74
2021/01/06 02:00:14;;;;;;;18.70;14.98;;;;;;;2.51;100.00;101037.84;10255098;29;20404;-74
2021/01/06 02:05:19;;;;;;;20.17;13.93;;;;;;;2.51;100.00;101034.41;10234210;28;20059;-74
2021/01/06 02:10:28;;;;;;;18.77;14.85;;;;;;;2.54;100.00;101034.38;10254706;29;20046;-74
2021/01/06 02:15:38;;;;;;;17.42;12.23;;;;;;;2.59;100.00;101041.31;10254907;29;20376;-74
2021/01/06 02:20:39;;;;;;;15.77;11.85;;;;;;;2.54;100.00;101031.78;10255437;29;20448;-74
2021/01/06 02:25:41;;;;;;;18.00;12.93;;;;;;;2.60;100.00;101030.00;10255055;28;20369;-74
2021/01/06 02:30:42;;;;;;;18.45;13.25;;;;;;;2.60;100.00;101023.94;10284136;28;20058;-74
2021/01/06 02:35:43;;;;;;;18.50;12.82;;;;;;;2.64;100.00;101023.94;10283621;28;20066;-74
2021/01/06 02:40:45;;;;;;;20.08;16.08;;;;;;;2.64;100.00;101023.94;10254111;29;20051;-74
2021/01/06 02:45:46;;;;;;;17.42;12.40;;;;;;;2.64;100.00;101010.94;10253452;29;20048;-74
2021/01/06 02:50:52;;;;;;;19.00;13.43;;;;;;;2.62;100.00;101007.47;10236454;29;20457;-74
2021/01/06 02:55:54;;;;;;;19.77;13.82;;;;;;;2.68;100.00;101010.03;10235881;29;20058;-74
2021/01/06 03:00:55;;;;;;;20.85;14.50;;;;;;;2.67;100.00;101003.13;10253837;29;20043;-74
2021/01/06 03:06:28;;;;;;;19.63;13.32;;;;;;;2.70;100.00;101001.34;10266312;28;20035;-74
2021/01/06 03:11:29;;;;;;;17.90;14.45;;;;;;;2.62;100.00;100991.88;10253288;29;20388;-74
2021/01/06 03:16:30;;;;;;;18.88;13.95;;;;;;;2.71;100.00;100992.69;10252745;28;20054;-74
2021/01/06 03:21:32;;;;;;;15.65;11.63;;;;;;;2.71;100.00;100990.94;10253255;29;20122;-74
2021/01/06 03:26:35;;;;;;;17.80;11.45;;;;;;;2.67;100.00;100978.84;10253270;29;20472;-74
2021/01/06 03:31:42;;;;;;;19.25;13.25;;;;;;;2.69;100.00;100984.88;10290021;28;20047;-74
2021/01/06 03:36:49;;;;;;;17.88;12.30;;;;;;;2.66;100.00;100977.97;10271437;28;20055;-74
2021/01/06 03:41:51;;;;;;;17.70;12.25;;;;;;;2.67;100.00;100973.66;10260898;29;20085;-74
2021/01/06 03:47:06;;;;;;;17.27;11.93;;;;;;;2.68;100.00;100970.13;10260523;29;20455;-74
2021/01/06 03:52:12;;;;;;;15.83;11.17;;;;;;;2.72;100.00;100971.88;10233259;28;20039;-74
2021/01/06 03:57:14;;;;;;;16.33;11.05;;;;;;;2.69;100.00;100961.47;10268294;28;20287;-74
2021/01/06 04:02:20;;;;;;;15.02;10.70;;;;;;;2.75;100.00;100964.06;10242394;28;20475;-74
2021/01/06 04:07:35;;;;;;;14.13;9.65;;;;;;;2.77;100.00;100971.81;10263925;28;20051;-74
2021/01/06 04:12:36;;;;;;;14.07;10.60;;;;;;;2.69;100.00;100953.66;10259961;29;20047;-74
2021/01/06 04:17:40;;;;;;;15.07;11.50;;;;;;;2.74;100.00;100959.72;10266824;28;20464;-74
2021/01/06 04:22:53;;;;;;;14.98;11.10;;;;;;;2.74;100.00;100946.72;10246786;29;20047;-74
2021/01/06 04:28:01;;;;;;;17.95;12.80;;;;;;;2.70;100.00;100942.38;10233782;28;20066;-74
2021/01/06 04:33:06;;;;;;;18.05;13.27;;;;;;;2.75;100.00;100952.78;10299058;28;20062;-74
2021/01/06 04:38:07;;;;;;;18.15;13.68;;;;;;;2.72;100.00;100937.19;10273074;28;20043;-74
2021/01/06 04:43:17;;;;;;;20.05;14.07;;;;;;;2.83;100.00;100943.19;10259056;29;20046;-74
2021/01/06 04:48:32;;;;;;;15.80;12.10;;;;;;;2.76;100.00;100931.97;10239366;28;20051;-74
2021/01/06 04:53:52;;;;;;;18.08;13.07;;;;;;;2.76;100.00;100936.31;10257601;28;20047;-74
2021/01/06 04:58:59;;;;;;;16.45;12.52;;;;;;;2.78;100.00;100932.78;10257780;29;20047;-74
2021/01/06 05:04:19;;;;;;;19.52;13.52;;;;;;;2.79;100.00;100933.66;10256880;29;20047;-74
2021/01/06 05:09:28;;;;;;;19.00;13.55;;;;;;;2.75;100.00;100929.38;10254818;28;20047;-74
2021/01/06 05:14:55;;;;;;;16.40;12.45;;;;;;;2.72;100.00;100913.78;10254889;29;20043;-74
2021/01/06 05:19:56;;;;;;;20.48;14.38;;;;;;;2.68;100.00;100916.38;10248714;29;20070;-74
2021/01/06 05:24:58;;;;;;;16.40;12.57;;;;;;;2.64;100.00;100899.09;10256849;29;20520;-74
2021/01/06 05:30:01;;;;;;;19.20;14.52;;;;;;;2.67;100.00;100903.41;10281132;28;20039;-74
2021/01/06 05:35:07;;;;;;;19.60;13.25;;;;;;;2.71;100.00;100910.31;10248687;28;20138;-74
2021/01/06 05:40:13;;;;;;;15.85;11.70;;;;;;;2.64;100.00;100890.41;10253325;28;20075;-74
2021/01/06 05:45:16;;;;;;;17.92;13.07;;;;;;;2.67;100.00;100899.09;10255697;29;20053;-74
2021/01/06 05:50:30;;;;;;;16.42;11.85;;;;;;;2.63;100.00;100899.09;10238129;29;20059;-74
2021/01/06 05:55:36;;;;;;;15.35;12.15;;;;;;;2.61;100.00;100901.69;10238347;29;20055;-74
2021/01/06 06:01:02;;;;;;;15.82;11.48;;;;;;;2.61;100.00;100893.03;10255121;28;20043;-74
2021/01/06 06:06:24;;;;;;;14.57;11.25;;;;;;;2.64;100.00;100888.69;10255090;29;20047;-75
2021/01/06 06:11:40;;;;;;;18.17;13.13;;;;;;;2.61;100.00;100880.91;10253831;28;20039;-74
2021/01/06 06:17:08;;;;;;;16.35;11.52;;;;;;;2.61;100.00;100878.28;10236054;29;20054;-74
2021/01/06 06:22:19;;;;;;;16.45;12.60;;;;;;;2.53;100.00;100874.03;10255408;29;20051;-74
2021/01/06 06:27:45;;;;;;;15.68;11.48;;;;;;;2.58;100.00;100874.88;10257708;28;20053;-74
2021/01/06 06:32:48;;;;;;;15.30;11.10;;;;;;;2.54;100.00;100873.16;10277013;28;20069;-74
2021/01/06 06:37:59;;;;;;;16.05;11.85;;;;;;;2.43;100.00;100860.22;10294962;28;20133;-74
2021/01/06 06:43:03;;;;;;;17.17;12.27;;;;;;;2.31;100.00;100844.72;10254978;28;20050;-74
2021/01/06 06:48:52;;;;;;;15.27;10.45;;;;;;;2.15;100.00;100849.16;10254238;29;20079;-74
2021/01/06 06:54:07;;;;;;;13.85;10.40;;;;;;;1.89;100.00;100848.44;10186392;28;20122;-73
2021/01/06 06:59:14;;;;;;;14.13;10.43;;;;;;;1.75;100.00;100847.66;10277302;28;20062;-74
2021/01/06 07:04:32;;;;;;;15.32;10.43;;;;;;;1.68;100.00;100846.78;10293536;28;20495;-74
2021/01/06 07:09:38;;;;;;;14.40;10.60;;;;;;;1.64;100.00;100847.69;10289281;28;20090;-74
2021/01/06 07:14:59;;;;;;;17.58;12.15;;;;;;;1.65;100.00;100849.41;10252613;28;20094;-74
2021/01/06 07:20:08;;;;;;;15.95;10.40;;;;;;;1.50;100.00;100852.09;10252580;29;20043;-74
2021/01/06 07:25:18;;;;;;;13.23;10.43;;;;;;;1.41;100.00;100849.50;10252791;29;20043;-75
2021/01/06 07:30:48;;;;;;;15.15;10.65;;;;;;;1.16;100.00;100846.13;10270688;28;20043;-73
2021/01/06 07:35:50;;;;;;;18.83;12.35;;;;;;;1.18;100.00;100857.34;10231865;28;20062;-73
2021/01/06 07:40:57;;;;;;;16.25;12.20;;;;;;;1.19;100.00;100869.44;10250340;28;20465;-72
2021/01/06 07:45:59;;;;;;;17.17;12.40;;;;;;;1.10;100.00;100857.34;10252328;28;20051;-73
2021/01/06 07:51:10;;;;;;;25.00;16.77;;;;;;;1.16;100.00;100871.19;10259818;28;20047;-71
2021/01/06 07:56:28;;;;;;;30.83;19.05;;;;;;;0.98;100.00;100867.75;10235382;28;20405;-72
2021/01/06 08:01:43;;;;;;;19.58;14.63;;;;;;;0.83;100.00;100864.31;10249397;28;20160;-71
2021/01/06 08:06:55;;;;;;;18.02;13.25;;;;;;;0.91;100.00;100870.38;10251072;29;20055;-71
2021/01/06 08:12:00;;;;;;;22.58;15.98;;;;;;;1.06;100.00;100885.91;10289163;28;20058;-71
2021/01/06 08:17:24;;;;;;;21.15;15.00;;;;;;;1.26;100.00;100893.66;10250145;29;20493;-73
2021/01/06 08:22:39;;;;;;;17.02;12.57;;;;;;;1.13;100.00;100869.47;10251894;28;20058;-72
2021/01/06 08:27:40;;;;;;;18.98;13.15;;;;;;;1.27;100.00;100887.59;10262972;28;20047;-72
2021/01/06 08:32:42;;;;;;;18.45;13.00;;;;;;;1.37;100.00;100889.31;10268802;28;20090;-72
2021/01/06 08:37:45;;;;;;;16.73;12.77;;;;;;;1.38;100.00;100891.03;10254241;28;20043;-73
2021/01/06 08:42:47;;;;;;;17.00;12.45;;;;;;;1.29;100.00;100878.09;10257030;29;20499;-73
2021/01/06 08:47:49;;;;;;;17.40;13.20;;;;;;;1.47;100.00;100894.47;10266071;28;20058;-73
2021/01/06 08:52:56;;;;;;;16.90;12.55;;;;;;;1.64;100.00;100902.22;10256426;29;20171;-73
2021/01/06 08:58:07;;;;;;;15.95;12.70;;;;;;;1.64;100.00;100897.03;10256586;29;20050;-73
2021/01/06 09:03:20;;;;;;;19.77;14.60;;;;;;;1.65;100.00;100898.75;10256004;29;20415;-73
2021/01/06 09:09:13;;;;;;;21.27;16.75;;;;;;;1.65;100.00;100898.75;10244488;29;20060;-71
2021/01/06 09:14:30;;;;;;;34.10;23.58;;;;;;;1.53;100.00;100891.84;10193302;29;20059;-72
2021/01/06 09:19:50;;;;;;;36.15;26.20;;;;;;;1.60;100.00;100894.44;10255752;28;20054;-73
2021/01/06 09:24:53;;;;;;;29.30;20.70;;;;;;;1.52;100.00;100884.06;10257879;29;20408;-71
2021/01/06 09:29:56;;;;;;;18.35;14.60;;;;;;;1.37;100.00;100892.78;10236733;29;20043;-71
2021/01/06 09:35:01;;;;;;;20.75;16.13;;;;;;;1.27;100.00;100892.78;10253855;28;20063;-72
2021/01/06 09:40:15;;;;;;;19.50;14.52;;;;;;;1.12;100.00;100888.50;10213957;29;20054;-72
2021/01/06 09:45:21;;;;;;;57.95;36.10;;;;;;;1.18;100.00;100898.84;10270163;28;20042;-72
2021/01/06 09:50:30;;;;;;;43.05;29.58;;;;;;;1.41;100.00;100930.84;10293445;28;20098;-72
2021/01/06 09:55:31;;;;;;;26.70;19.77;;;;;;;1.55;100.00;100924.75;10284252;28;20075;-72
2021/01/06 10:00:59;;;;;;;20.80;15.55;;;;;;;1.73;100.00;100935.94;10254960;29;20047;-72
2021/01/06 10:06:37;;;;;;;18.02;13.57;;;;;;;1.95;100.00;100935.88;10255474;29;20067;-72
2021/01/06 10:11:56;;;;;;;18.50;14.35;;;;;;;2.26;100.00;100953.03;10253399;29;20051;-72
2021/01/06 10:17:30;;;;;;;19.85;15.57;;;;;;;2.47;100.00;100957.28;10215342;29;20524;-72
2021/01/06 10:22:57;;;;;;;27.55;19.67;;;;;;;2.52;100.00;100942.50;10246235;29;20106;-72
2021/01/06 10:28:05;;;;;;;32.10;23.27;;;;;;;2.65;100.00;100949.38;10261158;28;20051;-71
2021/01/06 10:33:18;;;;;;;26.05;19.17;;;;;;;2.65;100.00;100945.03;10254382;28;20066;-73
2021/01/06 10:38:26;;;;;;;27.20;19.85;;;;;;;2.81;100.00;100943.19;10253705;29;20047;-72
2021/01/06 10:43:40;;;;;;;25.60;18.95;;;;;;;2.92;100.00;100914.50;10252907;29;20050;-73
2021/01/06 10:48:43;;;;;;;24.50;19.17;;;;;;;3.08;100.00;100929.09;10251943;28;20039;-73
2021/01/06 10:53:44;;;;;;;22.88;17.17;;;;;;;3.09;100.00;100914.34;10253078;29;20399;-74
2021/01/06 10:59:05;;;;;;;23.33;18.05;;;;;;;3.26;100.00;100922.88;10252762;29;20054;-73
2021/01/06 11:04:40;;;;;;;25.05;19.83;;;;;;;3.30;100.00;100908.94;10252953;29;20062;-74
2021/01/06 11:10:06;;;;;;;24.90;19.70;;;;;;;3.31;100.00;100895.91;10251824;29;20421;-73
2021/01/06 11:15:25;;;;;;;34.90;24.17;;;;;;;3.22;100.00;100885.56;10252483;29;20059;-73
2021/01/06 11:20:35;;;;;;;26.55;20.02;;;;;;;2.98;100.00;100865.00;10252517;29;20049;-72
2021/01/06 11:25:49;;;;;;;26.20;19.80;;;;;;;2.79;100.00;100851.28;10253143;28;20039;-73
2021/01/06 11:31:14;;;;;;;24.67;17.42;;;;;;;2.93;100.00;100853.78;10250200;28;20047;-73
2021/01/06 11:36:36;;;;;;;29.05;20.50;;;;;;;3.00;100.00;100855.44;10254710;28;20063;-73
2021/01/06 11:41:46;;;;;;;29.63;21.02;;;;;;;3.00;100.00;100855.44;10244579;28;20043;-73
2021/01/06 11:46:50;;;;;;;25.85;19.88;;;;;;;2.96;100.00;100854.59;10236055;28;20049;-73
2021/01/06 11:52:11;;;;;;;;;;;;;;;2.90;100.00;100848.59;10279088;28;20055;-73
2021/01/06 11:57:21;;;;;;;25.98;18.98;;;;;;;3.00;100.00;100840.69;10234214;28;20325;-74
2021/01/06 12:02:34;;;;;;;30.48;22.60;;;;;;;2.85;100.00;100838.19;10242370;29;20062;-74
2021/01/06 12:07:47;;;;;;;28.40;20.30;;;;;;;2.90;100.00;100832.97;10256715;29;20055;-74
2021/01/06 12:13:16;;;;;;;29.85;22.05;;;;;;;2.97;100.00;100824.22;10255346;29;20064;-73
2021/01/06 12:18:29;;;;;;;29.85;20.38;;;;;;;2.98;100.00;100819.00;10240534;29;20046;-73
2021/01/06 12:23:40;;;;;;;29.25;20.05;;;;;;;2.98;100.00;100811.22;10257559;29;20395;-73
2021/01/06 12:28:46;;;;;;;30.00;20.77;;;;;;;3.06;100.00;100811.13;10258113;28;20086;-72
2021/01/06 12:34:16;;;;;;;28.70;19.88;;;;;;;2.92;100.00;100793.06;10256293;29;20504;-73
2021/01/06 12:39:27;;;;;;;30.48;20.73;;;;;;;3.03;100.00;100795.53;10233046;29;20492;-73
2021/01/06 12:44:32;;;;;;;31.98;20.52;;;;;;;3.08;100.00;100798.09;10256846;29;20050;-73
2021/01/06 12:49:41;;;;;;;27.23;20.65;;;;;;;3.28;100.00;100804.78;10256864;29;20051;-74
2021/01/06 12:54:57;;;;;;;26.73;19.13;;;;;;;3.16;100.00;100785.88;10238428;29;20051;-75
2021/01/06 13:00:03;;;;;;;25.38;18.13;;;;;;;3.18;100.00;100792.75;10247941;29;20369;-73
2021/01/06 13:05:27;;;;;;;23.33;17.45;;;;;;;3.26;100.00;100787.50;10255923;29;20058;-73
2021/01/06 13:10:44;;;;;;;30.23;23.48;;;;;;;3.27;100.00;100769.22;10254869;28;20549;-73
2021/01/06 13:15:59;;;;;;;33.10;24.02;;;;;;;3.15;100.00;100774.59;10257301;29;20054;-73
2021/01/06 13:21:33;;;;;;;34.60;24.17;;;;;;;3.12;100.00;100777.22;10247005;28;20432;-74
2021/01/06 13:26:39;;;;;;;37.20;26.50;;;;;;;2.86;100.00;100763.63;10255604;29;20046;-72
2021/01/06 13:31:49;;;;;;;30.05;22.55;;;;;;;2.73;100.00;100759.44;10255751;28;20050;-72
2021/01/06 13:36:57;;;;;;;31.40;21.70;;;;;;;2.63;100.00;100759.50;10238832;28;20051;-73
2021/01/06 13:42:15;;;;;;;29.05;21.52;;;;;;;2.66;100.00;100772.50;10271149;28;20051;-74
2021/01/06 13:47:23;;;;;;;27.42;20.83;;;;;;;2.49;100.00;100752.72;10255720;29;20043;-73
2021/01/06 13:52:32;;;;;;;29.63;21.65;;;;;;;2.39;100.00;100756.28;10238308;29;20054;-73
2021/01/06 13:57:54;;;;;;;26.90;19.58;;;;;;;2.39;100.00;100761.47;10256844;29;20050;-73
2021/01/06 14:03:19;;;;;;;26.33;19.60;;;;;;;2.42;100.00;100774.47;10254728;29;20400;-73
2021/01/06 14:08:28;;;;;;;25.20;18.10;;;;;;;2.40;100.00;100777.06;10256288;29;20042;-73
2021/01/06 14:13:36;;;;;;;29.42;19.60;;;;;;;2.40;100.00;100777.06;10249641;29;20050;-74
2021/01/06 14:18:41;;;;;;;25.15;18.25;;;;;;;2.40;100.00;100777.06;10254974;29;20047;-73
2021/01/06 14:23:52;;;;;;;26.88;18.40;;;;;;;2.29;100.00;100778.88;10253707;28;20109;-74
2021/01/06 14:29:12;;;;;;;24.75;17.95;;;;;;;2.34;100.00;100777.13;10254275;28;20043;-73
2021/01/06 14:34:19;;;;;;;24.67;17.90;;;;;;;2.21;100.00;100765.94;10221768;29;20063;-74
2021/01/06 14:39:23;;;;;;;25.60;17.52;;;;;;;2.23;100.00;100776.34;10253338;29;20118;-74
2021/01/06 14:44:46;;;;;;;27.50;16.65;;;;;;;2.15;100.00;100779.00;10255213;29;20058;-74
2021/01/06 14:49:57;;;;;;;30.73;19.60;;;;;;;2.06;100.00;100773.84;10253823;29;20062;-74
2021/01/06 14:55:33;;;;;;;25.83;17.40;;;;;;;2.23;100.00;100787.59;10253519;29;20146;-73
2021/01/06 15:00:57;;;;;;;22.92;14.93;;;;;;;2.06;100.00;100773.00;10252829;29;20043;-73
2021/01/06 15:06:09;;;;;;;21.38;15.27;;;;;;;2.16;100.00;100780.72;10236654;29;20058;-73
2021/01/06 15:11:23;;;;;;;23.05;15.82;;;;;;;1.92;100.00;100770.50;10253061;29;20118;-73
2021/01/06 15:16:24;;;;;;;25.85;16.40;;;;;;;1.84;100.00;100767.09;10254102;28;20419;-72
2021/01/06 15:21:35;;;;;;;24.70;17.67;;;;;;;1.92;100.00;100773.09;10255576;28;20623;-74
2021/01/06 15:26:43;;;;;;;26.38;17.17;;;;;;;1.90;100.00;100777.44;10221673;29;20388;-74
2021/01/06 15:31:47;;;;;;;27.38;19.63;;;;;;;1.89;100.00;100780.91;10254441;28;20054;-74
2021/01/06 15:36:48;;;;;;;29.63;19.95;;;;;;;1.93;100.00;100780.00;10237901;28;20058;-75
2021/01/06 15:41:52;;;;;;;22.10;15.32;;;;;;;1.74;100.00;100771.47;10261266;28;20465;-74
2021/01/06 15:46:58;;;;;;;20.40;15.30;;;;;;;1.71;100.00;100762.81;10261628;29;20587;-74
2021/01/06 15:52:24;;;;;;;24.35;16.13;;;;;;;1.80;100.00;100768.84;10286435;28;20086;-74
2021/01/06 15:57:30;;;;;;;22.88;14.75;;;;;;;1.69;100.00;100761.97;10243381;29;20059;-74
2021/01/06 16:02:31;;;;;;;17.23;12.90;;;;;;;1.62;100.00;100752.47;10259668;29;20387;-73
2021/01/06 16:07:32;;;;;;;19.55;14.60;;;;;;;1.55;100.00;100750.78;10258737;29;20051;-74
2021/01/06 16:12:35;;;;;;;23.65;14.95;;;;;;;1.99;100.00;100790.38;10260061;29;20047;-74
2021/01/06 16:17:39;;;;;;;26.92;19.77;;;;;;;2.14;100.00;100787.66;10259836;29;20039;-69
2021/01/06 16:22:45;;;;;;;31.65;24.83;;;;;;;1.92;100.00;100777.44;10249696;28;20047;-73
2021/01/06 16:27:47;;;;;;;20.13;15.63;;;;;;;1.77;100.00;100773.16;10267617;28;20043;-74
2021/01/06 16:33:00;;;;;;;18.98;15.32;;;;;;;1.72;100.00;100772.34;10259584;28;20070;-73
2021/01/06 16:38:11;;;;;;;21.83;13.80;;;;;;;1.65;100.00;100775.84;10240885;29;20083;-73
2021/01/06 16:43:24;;;;;;;17.80;12.60;;;;;;;1.48;100.00;100765.53;10258364;28;20160;-74
2021/01/06 16:48:26;;;;;;;40.33;25.67;;;;;;;1.41;100.00;100774.25;10258399;29;20043;-74
2021/01/06 16:53:30;;;;;;;39.63;25.80;;;;;;;1.53;100.00;100779.34;10256499;29;20043;-74
2021/01/06 16:58:32;;;;;;;43.22;30.25;;;;;;;1.57;100.00;100781.09;10257524;29;20043;-74
2021/01/06 17:03:40;;;;;;;48.97;36.58;;;;;;;1.65;100.00;100786.22;10256925;29;20834;-74
2021/01/06 17:08:42;;;;;;;44.17;30.90;;;;;;;1.63;100.00;100775.00;10256240;28;20035;-74
2021/01/06 17:13:53;;;;;;;45.05;33.50;;;;;;;1.66;100.00;100777.56;10239795;29;20051;-73
2021/01/06 17:19:02;;;;;;;35.95;24.40;;;;;;;1.63;100.00;100782.78;10239642;29;20491;-73
2021/01/06 17:24:28;;;;;;;26.15;19.52;;;;;;;1.68;100.00;100789.66;10256424;29;20377;-74
2021/01/06 17:29:35;;;;;;;23.97;16.50;;;;;;;1.49;100.00;100765.53;10237146;28;20475;-74
2021/01/06 17:34:36;;;;;;;23.02;17.38;;;;;;;1.41;100.00;100776.84;10255850;28;20056;-74
2021/01/06 17:39:40;;;;;;;20.40;15.32;;;;;;;1.37;100.00;100775.09;10251778;28;20067;-73
2021/01/06 17:44:46;;;;;;;20.02;15.05;;;;;;;1.29;100.00;100767.34;10257386;28;20047;-74
2021/01/06 17:49:47;;;;;;;19.88;15.15;;;;;;;1.27;100.00;100763.91;10255489;29;20040;-74
2021/01/06 17:54:49;;;;;;;24.48;17.83;;;;;;;1.23;100.00;100764.78;10253975;28;20484;-74
2021/01/06 17:59:51;;;;;;;25.23;18.30;;;;;;;1.30;100.00;100770.81;10255758;29;20102;-74
2021/01/06 18:04:53;;;;;;;29.40;20.20;;;;;;;1.19;100.00;100782.94;10254490;29;20042;-73
2021/01/06 18:09:54;;;;;;;41.08;29.50;;;;;;;1.18;100.00;100776.91;10247441;28;20039;-73
2021/01/06 18:14:56;;;;;;;24.52;19.08;;;;;;;1.20;100.00;100784.69;10254152;29;20047;-74
2021/01/06 18:19:58;;;;;;;26.65;19.40;;;;;;;1.23;100.00;100788.16;10242980;29;20062;-73
2021/01/06 18:24:59;;;;;;;20.45;14.55;;;;;;;1.14;100.00;100788.16;10241847;28;20053;-74
2021/01/06 18:30:00;;;;;;;20.13;14.07;;;;;;;1.14;100.00;100788.16;10293610;28;20051;-73
2021/01/06 18:35:15;;;;;;;18.40;14.80;;;;;;;1.16;100.00;100793.38;10293108;28;20800;-73
2021/01/06 18:40:16;;;;;;;17.33;11.32;;;;;;;1.01;100.00;100787.31;10213942;29;20058;-74
2021/01/06 18:45:18;;;;;;;16.10;11.57;;;;;;;0.95;100.00;100786.47;10225520;28;20047;-74
2021/01/06 18:50:21;;;;;;;15.68;10.50;;;;;;;1.08;100.00;100790.78;10253669;29;20039;-73
2021/01/06 18:55:31;;;;;;;15.43;10.82;;;;;;;1.04;100.00;100794.25;10251788;29;20626;-73
2021/01/06 19:00:32;;;;;;;15.18;9.75;;;;;;;0.94;100.00;100789.94;10235098;29;20047;-73
2021/01/06 19:05:49;;;;;;;14.20;9.80;;;;;;;0.91;100.00;100792.56;10236549;28;20491;-73
2021/01/06 19:10:51;;;;;;;17.63;12.48;;;;;;;0.93;100.00;100791.66;10256503;28;20046;-73
2021/01/06 19:15:53;;;;;;;18.35;13.57;;;;;;;0.97;100.00;100803.78;10265544;28;20073;-73
2021/01/06 19:20:59;;;;;;;42.05;29.35;;;;;;;0.96;100.00;100812.44;10252661;28;20047;-73
2021/01/06 19:26:00;;;;;;;22.85;14.75;;;;;;;1.01;100.00;100807.22;10219790;28;20054;-73
2021/01/06 19:31:03;;;;;;;15.07;11.45;;;;;;;0.97;100.00;100810.69;10289011;28;20047;-73
2021/01/06 19:36:04;;;;;;;17.25;11.20;;;;;;;0.98;100.00;100805.50;10234790;29;20075;-73
2021/01/06 19:41:05;;;;;;;16.98;11.18;;;;;;;0.96;100.00;100812.44;10248570;28;20060;-73
2021/01/06 19:46:07;;;;;;;16.42;12.40;;;;;;;0.93;100.00;100798.59;10252737;29;20039;-73
2021/01/06 19:51:08;;;;;;;15.32;10.43;;;;;;;0.91;100.00;100809.00;10250970;29;20392;-74
2021/01/06 19:56:11;;;;;;;15.82;11.10;;;;;;;0.92;100.00;100812.44;10250569;29;20035;-73
2021/01/06 20:01:24;;;;;;;16.60;10.82;;;;;;;0.88;100.00;100808.97;10251443;29;20043;-74
2021/01/06 20:06:26;;;;;;;15.85;10.73;;;;;;;0.85;100.00;100805.50;10250905;28;20058;-73
2021/01/06 20:11:29;;;;;;;16.88;11.10;;;;;;;0.81;100.00;100809.88;10251780;29;20043;-74
2021/01/06 20:16:31;;;;;;;15.57;10.35;;;;;;;0.88;100.00;100824.53;10255538;28;20043;-74
2021/01/06 20:21:33;;;;;;;13.02;10.07;;;;;;;0.91;100.00;100823.69;10240434;29;20476;-74
2021/01/06 20:26:37;;;;;;;17.10;10.65;;;;;;;0.91;100.00;100816.78;10257687;29;20047;-74
2021/01/06 20:31:38;;;;;;;17.23;11.70;;;;;;;0.84;100.00;100809.00;10257880;28;20098;-73
2021/01/06 20:36:39;;;;;;;16.33;11.90;;;;;;;0.81;100.00;100814.19;10257024;29;20059;-73
2021/01/06 20:41:41;;;;;;;19.85;13.50;;;;;;;0.61;100.00;100790.84;10234244;29;20047;-73
2021/01/06 20:46:42;;;;;;;15.65;11.38;;;;;;;0.59;100.00;100797.75;10243996;28;20047;-73
2021/01/06 20:51:43;;;;;;;17.30;12.05;;;;;;;0.57;100.00;100799.53;10258202;29;20797;-73
2021/01/06 20:56:52;;;;;;;16.83;11.13;;;;;;;0.60;100.00;100797.78;10239923;29;20040;-73
2021/01/06 21:02:12;;;;;;;17.00;11.77;;;;;;;0.40;100.00;100775.34;10218853;29;20051;-74
2021/01/06 21:07:13;;;;;;;19.67;12.77;;;;;;;0.52;100.00;100796.91;10234025;29;20047;-74
2021/01/06 21:12:14;;;;;;;16.48;11.48;;;;;;;0.33;100.00;100787.44;10253790;29;20043;-73
2021/01/06 21:17:15;;;;;;;16.38;11.32;;;;;;;0.34;100.00;100792.59;10273012;28;20043;-74
2021/01/06 21:22:16;;;;;;;17.70;11.52;;;;;;;0.55;100.00;100809.00;10257899;28;20047;-73
2021/01/06 21:27:17;;;;;;;21.30;14.63;;;;;;;0.44;100.00;100795.19;10258879;28;20050;-73
2021/01/06 21:32:24;;;;;;;17.40;12.27;;;;;;;0.55;100.00;100809.00;10245301;28;20409;-73
2021/01/06 21:37:25;;;;;;;18.40;13.02;;;;;;;0.50;100.00;100797.81;10235740;28;20049;-74
2021/01/06 21:42:26;;;;;;;21.35;13.43;;;;;;;0.46;100.00;100798.66;10247863;29;20055;-74
2021/01/06 21:47:28;;;;;;;23.40;12.52;;;;;;;0.55;100.00;100807.28;10222103;29;20047;-73
2021/01/06 21:52:29;;;;;;;16.15;10.85;;;;;;;0.53;100.00;100802.97;10252107;29;20112;-73
2021/01/06 21:57:30;;;;;;;13.55;9.07;;;;;;;0.63;100.00;100813.34;10256883;29;20031;-74
2021/01/06 22:02:31;;;;;;;15.82;10.07;;;;;;;0.67;100.00;100809.84;10255467;29;20058;-73
2021/01/06 22:07:32;;;;;;;14.05;10.27;;;;;;;0.66;100.00;100808.16;10255178;29;20043;-74
2021/01/06 22:12:33;;;;;;;16.13;11.30;;;;;;;0.72;100.00;100804.69;10256139;29;20384;-73
2021/01/06 22:17:34;;;;;;;19.30;13.23;;;;;;;0.84;100.00;100815.03;10256330;28;20042;-73
2021/01/06 22:22:35;;;;;;;20.35;13.45;;;;;;;0.87;100.00;100815.03;10237634;29;20043;-74
2021/01/06 22:27:37;;;;;;;21.83;13.95;;;;;;;0.89;100.00;100805.53;10254566;28;20472;-73
2021/01/06 22:32:38;;;;;;;22.25;14.43;;;;;;;0.87;100.00;100809.84;10253559;28;20114;-74
2021/01/06 22:37:41;;;;;;;22.42;13.98;;;;;;;0.85;100.00;100802.94;10242697;29;20040;-74
2021/01/06 22:42:42;;;;;;;18.88;12.65;;;;;;;0.76;100.00;100801.22;10240316;28;20055;-73
2021/01/06 22:47:43;;;;;;;28.00;15.52;;;;;;;0.85;100.00;100800.31;10230288;29;20126;-74
2021/01/06 22:52:44;;;;;;;26.15;14.73;;;;;;;0.80;100.00;100794.31;10240733;29;20051;-74
2021/01/06 22:57:45;;;;;;;22.02;13.95;;;;;;;0.73;100.00;100783.94;10230881;29;20547;-73
2021/01/06 23:02:46;;;;;;;24.38;14.52;;;;;;;0.81;100.00;100796.03;10236680;29;20047;-73
2021/01/06 23:07:48;;;;;;;18.60;13.20;;;;;;;0.91;100.00;100792.56;10252795;28;20047;-73